sensor_id;sensor_type;location;lat;lon;timestamp;P1;durP1;ratioP1;P2;durP2;ratioP2
2434;SDS011;1228;51.022;6.764;2023-02-15T00:01:42;13.23;;;11.63;;
2434;SDS011;1228;51.022;6.764;2023-02-15T00:04:08;15.27;;;12.23;;
2434;SDS011;1228;51.022;6.764;2023-02-15T00:06:34;18.00;;;12.80;;
2434;SDS011;1228;51.022;6.764;2023-02-15T00:09:01;18.27;;;12.30;;
2434;SDS011;1228;51.022;6.764;2023-02-15T00:11:27;13.50;;;11.63;;
2434;SDS011;1228;51.022;6.764;2023-02-15T00:14:06;22.37;;;12.80;;
2434;SDS011;1228;51.022;6.764;2023-02-15T00:16:32;18.30;;;13.83;;
2434;SDS011;1228;51.022;6.764;2023-02-15T00:18:58;18.13;;;14.63;;
2434;SDS011;1228;51.022;6.764;2023-02-15T00:21:26;13.93;;;12.50;;
2434;SDS011;1228;51.022;6.764;2023-02-15T00:23:53;16.30;;;13.77;;
2434;SDS011;1228;51.022;6.764;2023-02-15T00:26:19;16.57;;;12.87;;
2434;SDS011;1228;51.022;6.764;2023-02-15T00:28:45;17.40;;;12.97;;
2434;SDS011;1228;51.022;6.764;2023-02-15T00:31:10;19.03;;;12.20;;
2434;SDS011;1228;51.022;6.764;2023-02-15T00:33:37;18.10;;;12.80;;
2434;SDS011;1228;51.022;6.764;2023-02-15T00:36:05;15.17;;;12.63;;
2434;SDS011;1228;51.022;6.764;2023-02-15T00:38:33;13.20;;;11.87;;
2434;SDS011;1228;51.022;6.764;2023-02-15T00:41:00;17.00;;;12.80;;
2434;SDS011;1228;51.022;6.764;2023-02-15T00:43:27;17.47;;;12.47;;
2434;SDS011;1228;51.022;6.764;2023-02-15T00:45:54;18.23;;;12.27;;
2434;SDS011;1228;51.022;6.764;2023-02-15T00:48:20;15.20;;;13.60;;
2434;SDS011;1228;51.022;6.764;2023-02-15T00:50:48;17.63;;;15.03;;
2434;SDS011;1228;51.022;6.764;2023-02-15T00:53:14;18.13;;;14.37;;
2434;SDS011;1228;51.022;6.764;2023-02-15T00:55:40;16.53;;;14.87;;
2434;SDS011;1228;51.022;6.764;2023-02-15T00:58:06;23.33;;;13.53;;
2434;SDS011;1228;51.022;6.764;2023-02-15T01:00:33;20.23;;;13.87;;
2434;SDS011;1228;51.022;6.764;2023-02-15T01:02:58;18.07;;;14.20;;
2434;SDS011;1228;51.022;6.764;2023-02-15T01:05:24;15.43;;;12.43;;
2434;SDS011;1228;51.022;6.764;2023-02-15T01:07:49;17.53;;;14.37;;
2434;SDS011;1228;51.022;6.764;2023-02-15T01:10:15;18.17;;;13.30;;
2434;SDS011;1228;51.022;6.764;2023-02-15T01:12:41;23.40;;;14.53;;
2434;SDS011;1228;51.022;6.764;2023-02-15T01:15:07;17.07;;;12.73;;
2434;SDS011;1228;51.022;6.764;2023-02-15T01:17:33;17.07;;;12.47;;
2434;SDS011;1228;51.022;6.764;2023-02-15T01:19:58;16.70;;;12.80;;
2434;SDS011;1228;51.022;6.764;2023-02-15T01:22:24;15.03;;;13.13;;
2434;SDS011;1228;51.022;6.764;2023-02-15T01:24:50;22.10;;;14.00;;
2434;SDS011;1228;51.022;6.764;2023-02-15T01:27:16;18.90;;;13.20;;
2434;SDS011;1228;51.022;6.764;2023-02-15T01:29:41;17.07;;;13.40;;
2434;SDS011;1228;51.022;6.764;2023-02-15T01:32:07;14.90;;;13.00;;
2434;SDS011;1228;51.022;6.764;2023-02-15T01:34:32;17.93;;;12.70;;
2434;SDS011;1228;51.022;6.764;2023-02-15T01:36:58;18.70;;;13.00;;
2434;SDS011;1228;51.022;6.764;2023-02-15T01:39:24;20.60;;;13.53;;
2434;SDS011;1228;51.022;6.764;2023-02-15T01:41:49;13.07;;;11.77;;
2434;SDS011;1228;51.022;6.764;2023-02-15T01:47:13;14.70;;;13.23;;
2434;SDS011;1228;51.022;6.764;2023-02-15T01:49:56;13.87;;;12.50;;
2434;SDS011;1228;51.022;6.764;2023-02-15T01:52:49;14.57;;;12.87;;
2434;SDS011;1228;51.022;6.764;2023-02-15T01:55:16;16.63;;;12.77;;
2434;SDS011;1228;51.022;6.764;2023-02-15T01:57:43;15.50;;;12.57;;
2434;SDS011;1228;51.022;6.764;2023-02-15T02:00:10;18.17;;;13.93;;
2434;SDS011;1228;51.022;6.764;2023-02-15T02:02:37;16.03;;;13.27;;
2434;SDS011;1228;51.022;6.764;2023-02-15T02:05:03;19.67;;;16.03;;
2434;SDS011;1228;51.022;6.764;2023-02-15T02:07:33;15.63;;;13.97;;
2434;SDS011;1228;51.022;6.764;2023-02-15T02:10:02;15.73;;;14.17;;
2434;SDS011;1228;51.022;6.764;2023-02-15T02:12:28;18.90;;;13.27;;
2434;SDS011;1228;51.022;6.764;2023-02-15T02:14:54;21.20;;;15.57;;
2434;SDS011;1228;51.022;6.764;2023-02-15T02:17:31;16.03;;;13.27;;
2434;SDS011;1228;51.022;6.764;2023-02-15T02:45:09;18.50;;;13.20;;
2434;SDS011;1228;51.022;6.764;2023-02-15T02:50:14;12.50;;;11.10;;
2434;SDS011;1228;51.022;6.764;2023-02-15T02:52:49;17.10;;;11.77;;
2434;SDS011;1228;51.022;6.764;2023-02-15T02:57:52;19.13;;;11.23;;
2434;SDS011;1228;51.022;6.764;2023-02-15T03:00:23;15.50;;;13.13;;
2434;SDS011;1228;51.022;6.764;2023-02-15T03:02:52;15.33;;;13.83;;
2434;SDS011;1228;51.022;6.764;2023-02-15T03:05:24;14.57;;;11.20;;
2434;SDS011;1228;51.022;6.764;2023-02-15T03:07:52;14.83;;;11.40;;
2434;SDS011;1228;51.022;6.764;2023-02-15T03:10:22;14.40;;;12.37;;
2434;SDS011;1228;51.022;6.764;2023-02-15T03:12:49;15.87;;;13.13;;
2434;SDS011;1228;51.022;6.764;2023-02-15T03:15:25;14.50;;;12.03;;
2434;SDS011;1228;51.022;6.764;2023-02-15T03:18:16;20.47;;;13.40;;
2434;SDS011;1228;51.022;6.764;2023-02-15T03:20:45;15.40;;;12.50;;
2434;SDS011;1228;51.022;6.764;2023-02-15T03:23:13;11.17;;;10.10;;
2434;SDS011;1228;51.022;6.764;2023-02-15T03:25:44;16.40;;;12.13;;
2434;SDS011;1228;51.022;6.764;2023-02-15T03:28:39;13.53;;;11.47;;
2434;SDS011;1228;51.022;6.764;2023-02-15T03:31:08;13.30;;;11.90;;
2434;SDS011;1228;51.022;6.764;2023-02-15T03:33:37;13.97;;;12.77;;
2434;SDS011;1228;51.022;6.764;2023-02-15T03:36:09;12.63;;;11.30;;
2434;SDS011;1228;51.022;6.764;2023-02-15T03:38:51;16.73;;;12.17;;
2434;SDS011;1228;51.022;6.764;2023-02-15T03:41:26;13.40;;;12.20;;
2434;SDS011;1228;51.022;6.764;2023-02-15T03:44:19;14.00;;;12.50;;
2434;SDS011;1228;51.022;6.764;2023-02-15T03:46:58;16.47;;;12.80;;
2434;SDS011;1228;51.022;6.764;2023-02-15T03:49:41;12.20;;;11.03;;
2434;SDS011;1228;51.022;6.764;2023-02-15T03:52:15;13.53;;;12.33;;
2434;SDS011;1228;51.022;6.764;2023-02-15T03:54:42;15.03;;;13.60;;
2434;SDS011;1228;51.022;6.764;2023-02-15T03:57:10;15.17;;;12.50;;
2434;SDS011;1228;51.022;6.764;2023-02-15T04:00:01;18.07;;;12.73;;
2434;SDS011;1228;51.022;6.764;2023-02-15T04:05:36;13.23;;;11.80;;
2434;SDS011;1228;51.022;6.764;2023-02-15T04:08:02;15.03;;;12.30;;
2434;SDS011;1228;51.022;6.764;2023-02-15T04:10:28;13.13;;;11.73;;
2434;SDS011;1228;51.022;6.764;2023-02-15T04:13:12;14.90;;;13.40;;
2434;SDS011;1228;51.022;6.764;2023-02-15T04:15:38;12.80;;;11.63;;
2434;SDS011;1228;51.022;6.764;2023-02-15T04:18:23;13.30;;;11.57;;
2434;SDS011;1228;51.022;6.764;2023-02-15T04:21:07;13.57;;;12.03;;
2434;SDS011;1228;51.022;6.764;2023-02-15T04:23:51;14.50;;;12.83;;
2434;SDS011;1228;51.022;6.764;2023-02-15T04:26:35;16.67;;;12.20;;
2434;SDS011;1228;51.022;6.764;2023-02-15T04:29:01;21.37;;;12.40;;
2434;SDS011;1228;51.022;6.764;2023-02-15T04:31:27;12.07;;;11.13;;
2434;SDS011;1228;51.022;6.764;2023-02-15T04:33:52;11.50;;;10.43;;
2434;SDS011;1228;51.022;6.764;2023-02-15T04:36:18;11.87;;;10.37;;
2434;SDS011;1228;51.022;6.764;2023-02-15T04:38:43;13.77;;;10.87;;
2434;SDS011;1228;51.022;6.764;2023-02-15T04:41:09;15.03;;;12.50;;
2434;SDS011;1228;51.022;6.764;2023-02-15T04:43:37;15.73;;;11.40;;
2434;SDS011;1228;51.022;6.764;2023-02-15T04:46:02;12.70;;;10.20;;
2434;SDS011;1228;51.022;6.764;2023-02-15T04:48:28;17.10;;;12.43;;
2434;SDS011;1228;51.022;6.764;2023-02-15T04:50:54;17.90;;;13.10;;
2434;SDS011;1228;51.022;6.764;2023-02-15T04:53:20;13.77;;;11.10;;
2434;SDS011;1228;51.022;6.764;2023-02-15T04:55:45;11.97;;;10.97;;
2434;SDS011;1228;51.022;6.764;2023-02-15T04:58:11;16.33;;;14.27;;
2434;SDS011;1228;51.022;6.764;2023-02-15T05:00:36;16.00;;;11.33;;
2434;SDS011;1228;51.022;6.764;2023-02-15T05:03:02;21.33;;;13.03;;
2434;SDS011;1228;51.022;6.764;2023-02-15T05:05:28;15.07;;;13.53;;
2434;SDS011;1228;51.022;6.764;2023-02-15T05:07:53;16.03;;;11.97;;
2434;SDS011;1228;51.022;6.764;2023-02-15T05:10:19;10.93;;;10.03;;
2434;SDS011;1228;51.022;6.764;2023-02-15T05:12:45;15.57;;;10.97;;
2434;SDS011;1228;51.022;6.764;2023-02-15T05:15:10;14.30;;;11.20;;
2434;SDS011;1228;51.022;6.764;2023-02-15T05:17:36;13.07;;;11.70;;
2434;SDS011;1228;51.022;6.764;2023-02-15T05:20:02;16.30;;;12.10;;
2434;SDS011;1228;51.022;6.764;2023-02-15T05:22:28;20.60;;;13.30;;
2434;SDS011;1228;51.022;6.764;2023-02-15T05:24:54;12.87;;;11.67;;
2434;SDS011;1228;51.022;6.764;2023-02-15T05:27:38;12.93;;;10.93;;
2434;SDS011;1228;51.022;6.764;2023-02-15T05:30:22;12.47;;;11.07;;
2434;SDS011;1228;51.022;6.764;2023-02-15T05:32:47;16.63;;;11.33;;
2434;SDS011;1228;51.022;6.764;2023-02-15T05:35:13;12.00;;;10.80;;
2434;SDS011;1228;51.022;6.764;2023-02-15T05:37:40;13.30;;;11.93;;
2434;SDS011;1228;51.022;6.764;2023-02-15T05:40:06;12.10;;;10.77;;
2434;SDS011;1228;51.022;6.764;2023-02-15T05:42:32;14.63;;;10.97;;
2434;SDS011;1228;51.022;6.764;2023-02-15T05:44:57;11.67;;;10.43;;
2434;SDS011;1228;51.022;6.764;2023-02-15T05:47:23;13.33;;;10.23;;
2434;SDS011;1228;51.022;6.764;2023-02-15T05:49:49;14.30;;;11.40;;
2434;SDS011;1228;51.022;6.764;2023-02-15T05:52:14;11.77;;;10.57;;
2434;SDS011;1228;51.022;6.764;2023-02-15T05:54:40;14.37;;;13.03;;
2434;SDS011;1228;51.022;6.764;2023-02-15T05:57:05;12.50;;;11.23;;
2434;SDS011;1228;51.022;6.764;2023-02-15T05:59:31;12.97;;;11.87;;
2434;SDS011;1228;51.022;6.764;2023-02-15T06:01:57;15.10;;;12.67;;
2434;SDS011;1228;51.022;6.764;2023-02-15T06:04:22;17.73;;;10.77;;
2434;SDS011;1228;51.022;6.764;2023-02-15T06:06:48;14.10;;;12.10;;
2434;SDS011;1228;51.022;6.764;2023-02-15T06:09:13;12.83;;;11.70;;
2434;SDS011;1228;51.022;6.764;2023-02-15T06:11:39;12.63;;;11.53;;
2434;SDS011;1228;51.022;6.764;2023-02-15T06:14:05;13.57;;;11.93;;
2434;SDS011;1228;51.022;6.764;2023-02-15T06:16:30;13.77;;;10.70;;
2434;SDS011;1228;51.022;6.764;2023-02-15T06:18:56;18.27;;;11.33;;
2434;SDS011;1228;51.022;6.764;2023-02-15T06:21:24;14.90;;;12.17;;
2434;SDS011;1228;51.022;6.764;2023-02-15T06:23:49;16.67;;;12.03;;
2434;SDS011;1228;51.022;6.764;2023-02-15T06:26:15;12.47;;;11.20;;
2434;SDS011;1228;51.022;6.764;2023-02-15T06:28:40;12.97;;;11.67;;
2434;SDS011;1228;51.022;6.764;2023-02-15T06:31:06;11.53;;;10.43;;
2434;SDS011;1228;51.022;6.764;2023-02-15T06:33:31;21.20;;;12.30;;
2434;SDS011;1228;51.022;6.764;2023-02-15T06:35:58;13.57;;;12.07;;
2434;SDS011;1228;51.022;6.764;2023-02-15T06:38:24;11.40;;;10.27;;
2434;SDS011;1228;51.022;6.764;2023-02-15T06:40:50;14.97;;;12.43;;
2434;SDS011;1228;51.022;6.764;2023-02-15T06:43:15;13.53;;;12.03;;
2434;SDS011;1228;51.022;6.764;2023-02-15T06:45:41;14.40;;;10.60;;
2434;SDS011;1228;51.022;6.764;2023-02-15T06:48:07;14.23;;;12.63;;
2434;SDS011;1228;51.022;6.764;2023-02-15T06:50:33;11.93;;;10.83;;
2434;SDS011;1228;51.022;6.764;2023-02-15T06:52:59;18.13;;;11.23;;
2434;SDS011;1228;51.022;6.764;2023-02-15T06:55:25;13.37;;;12.07;;
2434;SDS011;1228;51.022;6.764;2023-02-15T06:57:51;13.60;;;11.77;;
2434;SDS011;1228;51.022;6.764;2023-02-15T07:00:17;12.00;;;10.83;;
2434;SDS011;1228;51.022;6.764;2023-02-15T07:02:43;15.13;;;13.43;;
2434;SDS011;1228;51.022;6.764;2023-02-15T07:05:09;16.60;;;12.83;;
2434;SDS011;1228;51.022;6.764;2023-02-15T07:07:35;13.03;;;11.70;;
2434;SDS011;1228;51.022;6.764;2023-02-15T07:10:00;13.67;;;12.03;;
2434;SDS011;1228;51.022;6.764;2023-02-15T07:12:27;14.70;;;12.30;;
2434;SDS011;1228;51.022;6.764;2023-02-15T07:15:08;15.60;;;12.77;;
2434;SDS011;1228;51.022;6.764;2023-02-15T07:17:36;18.30;;;12.53;;
2434;SDS011;1228;51.022;6.764;2023-02-15T07:20:03;12.93;;;11.63;;
2434;SDS011;1228;51.022;6.764;2023-02-15T07:22:33;19.33;;;12.97;;
2434;SDS011;1228;51.022;6.764;2023-02-15T07:25:01;13.47;;;12.40;;
2434;SDS011;1228;51.022;6.764;2023-02-15T07:27:28;17.70;;;11.97;;
2434;SDS011;1228;51.022;6.764;2023-02-15T07:29:54;16.03;;;12.60;;
2434;SDS011;1228;51.022;6.764;2023-02-15T07:32:19;14.53;;;13.13;;
2434;SDS011;1228;51.022;6.764;2023-02-15T07:34:45;15.80;;;12.97;;
2434;SDS011;1228;51.022;6.764;2023-02-15T07:37:10;14.77;;;13.37;;
2434;SDS011;1228;51.022;6.764;2023-02-15T07:39:36;21.07;;;12.07;;
2434;SDS011;1228;51.022;6.764;2023-02-15T07:42:02;12.87;;;11.53;;
2434;SDS011;1228;51.022;6.764;2023-02-15T07:44:27;13.00;;;11.73;;
2434;SDS011;1228;51.022;6.764;2023-02-15T07:46:53;11.57;;;10.53;;
2434;SDS011;1228;51.022;6.764;2023-02-15T07:49:18;12.10;;;10.97;;
2434;SDS011;1228;51.022;6.764;2023-02-15T07:51:44;17.40;;;11.57;;
2434;SDS011;1228;51.022;6.764;2023-02-15T07:54:10;12.53;;;11.27;;
2434;SDS011;1228;51.022;6.764;2023-02-15T07:56:36;13.13;;;11.80;;
2434;SDS011;1228;51.022;6.764;2023-02-15T07:59:02;16.73;;;10.57;;
2434;SDS011;1228;51.022;6.764;2023-02-15T08:01:32;13.30;;;12.07;;
2434;SDS011;1228;51.022;6.764;2023-02-15T08:04:02;15.60;;;13.73;;
2434;SDS011;1228;51.022;6.764;2023-02-15T08:06:29;18.37;;;15.40;;
2434;SDS011;1228;51.022;6.764;2023-02-15T08:08:57;18.70;;;13.57;;
2434;SDS011;1228;51.022;6.764;2023-02-15T08:14:05;14.10;;;12.63;;
2434;SDS011;1228;51.022;6.764;2023-02-15T08:19:11;13.23;;;11.00;;
2434;SDS011;1228;51.022;6.764;2023-02-15T08:21:49;13.53;;;11.30;;
2434;SDS011;1228;51.022;6.764;2023-02-15T08:24:16;15.20;;;11.87;;
2434;SDS011;1228;51.022;6.764;2023-02-15T08:26:44;13.03;;;11.37;;
2434;SDS011;1228;51.022;6.764;2023-02-15T08:29:11;12.53;;;11.23;;
2434;SDS011;1228;51.022;6.764;2023-02-15T08:31:39;12.80;;;11.57;;
2434;SDS011;1228;51.022;6.764;2023-02-15T08:34:06;18.90;;;12.33;;
2434;SDS011;1228;51.022;6.764;2023-02-15T08:36:32;13.53;;;11.30;;
2434;SDS011;1228;51.022;6.764;2023-02-15T08:38:58;16.30;;;10.50;;
2434;SDS011;1228;51.022;6.764;2023-02-15T08:41:26;12.77;;;11.03;;
2434;SDS011;1228;51.022;6.764;2023-02-15T08:43:55;16.43;;;11.63;;
2434;SDS011;1228;51.022;6.764;2023-02-15T08:46:27;14.93;;;10.77;;
2434;SDS011;1228;51.022;6.764;2023-02-15T08:48:55;13.30;;;11.10;;
2434;SDS011;1228;51.022;6.764;2023-02-15T08:51:21;12.33;;;10.13;;
2434;SDS011;1228;51.022;6.764;2023-02-15T08:53:53;13.70;;;11.60;;
2434;SDS011;1228;51.022;6.764;2023-02-15T08:56:24;10.90;;;9.80;;
2434;SDS011;1228;51.022;6.764;2023-02-15T08:58:54;16.27;;;11.83;;
2434;SDS011;1228;51.022;6.764;2023-02-15T09:01:21;12.37;;;10.63;;
2434;SDS011;1228;51.022;6.764;2023-02-15T09:03:49;12.30;;;11.20;;
2434;SDS011;1228;51.022;6.764;2023-02-15T09:06:19;12.73;;;9.50;;
2434;SDS011;1228;51.022;6.764;2023-02-15T09:08:45;14.37;;;10.90;;
2434;SDS011;1228;51.022;6.764;2023-02-15T09:11:21;16.23;;;11.17;;
2434;SDS011;1228;51.022;6.764;2023-02-15T09:14:25;11.97;;;10.47;;
2434;SDS011;1228;51.022;6.764;2023-02-15T09:16:45;9.40;;;8.50;;
2434;SDS011;1228;51.022;6.764;2023-02-15T09:19:13;11.93;;;9.30;;
2434;SDS011;1228;51.022;6.764;2023-02-15T09:21:40;11.93;;;10.60;;
2434;SDS011;1228;51.022;6.764;2023-02-15T09:24:08;14.23;;;10.33;;
2434;SDS011;1228;51.022;6.764;2023-02-15T09:26:36;13.70;;;9.70;;
2434;SDS011;1228;51.022;6.764;2023-02-15T09:29:05;12.57;;;9.37;;
2434;SDS011;1228;51.022;6.764;2023-02-15T09:31:31;9.73;;;8.73;;
2434;SDS011;1228;51.022;6.764;2023-02-15T09:33:59;9.87;;;8.63;;
2434;SDS011;1228;51.022;6.764;2023-02-15T09:36:30;10.17;;;8.57;;
2434;SDS011;1228;51.022;6.764;2023-02-15T09:39:07;11.90;;;8.10;;
2434;SDS011;1228;51.022;6.764;2023-02-15T09:53:11;9.80;;;8.40;;
2434;SDS011;1228;51.022;6.764;2023-02-15T10:01:21;14.33;;;8.90;;
2434;SDS011;1228;51.022;6.764;2023-02-15T10:07:32;8.53;;;7.80;;
2434;SDS011;1228;51.022;6.764;2023-02-15T10:12:15;9.37;;;8.47;;
2434;SDS011;1228;51.022;6.764;2023-02-15T10:28:51;10.40;;;9.03;;
2434;SDS011;1228;51.022;6.764;2023-02-15T10:31:23;9.87;;;8.27;;
2434;SDS011;1228;51.022;6.764;2023-02-15T10:44:56;11.60;;;7.97;;
2434;SDS011;1228;51.022;6.764;2023-02-15T10:52:54;9.70;;;8.70;;
2434;SDS011;1228;51.022;6.764;2023-02-15T11:08:39;9.13;;;8.23;;
2434;SDS011;1228;51.022;6.764;2023-02-15T11:11:31;12.80;;;8.97;;
2434;SDS011;1228;51.022;6.764;2023-02-15T11:14:02;8.80;;;7.20;;
2434;SDS011;1228;51.022;6.764;2023-02-15T11:16:36;9.13;;;8.23;;
2434;SDS011;1228;51.022;6.764;2023-02-15T11:19:14;9.87;;;8.70;;
2434;SDS011;1228;51.022;6.764;2023-02-15T11:21:47;10.63;;;7.90;;
2434;SDS011;1228;51.022;6.764;2023-02-15T11:24:19;9.53;;;8.60;;
2434;SDS011;1228;51.022;6.764;2023-02-15T11:26:54;8.17;;;7.47;;
2434;SDS011;1228;51.022;6.764;2023-02-15T11:29:36;8.40;;;7.60;;
2434;SDS011;1228;51.022;6.764;2023-02-15T11:32:14;8.00;;;7.23;;
2434;SDS011;1228;51.022;6.764;2023-02-15T11:40:06;8.43;;;7.60;;
2434;SDS011;1228;51.022;6.764;2023-02-15T11:42:43;12.67;;;8.53;;
2434;SDS011;1228;51.022;6.764;2023-02-15T11:45:30;9.37;;;8.47;;
2434;SDS011;1228;51.022;6.764;2023-02-15T11:47:59;9.50;;;7.70;;
2434;SDS011;1228;51.022;6.764;2023-02-15T11:50:27;10.37;;;7.73;;
2434;SDS011;1228;51.022;6.764;2023-02-15T11:53:18;14.23;;;8.73;;
2434;SDS011;1228;51.022;6.764;2023-02-15T11:55:46;7.73;;;6.93;;
2434;SDS011;1228;51.022;6.764;2023-02-15T12:03:53;9.00;;;7.83;;
2434;SDS011;1228;51.022;6.764;2023-02-15T12:06:25;9.23;;;7.77;;
2434;SDS011;1228;51.022;6.764;2023-02-15T12:09:01;9.43;;;7.67;;
2434;SDS011;1228;51.022;6.764;2023-02-15T12:11:45;8.57;;;7.47;;
2434;SDS011;1228;51.022;6.764;2023-02-15T12:14:12;8.60;;;7.47;;
2434;SDS011;1228;51.022;6.764;2023-02-15T12:16:50;8.60;;;7.70;;
2434;SDS011;1228;51.022;6.764;2023-02-15T12:21:49;12.73;;;8.57;;
2434;SDS011;1228;51.022;6.764;2023-02-15T12:24:25;9.07;;;8.07;;
2434;SDS011;1228;51.022;6.764;2023-02-15T12:27:06;9.50;;;8.00;;
2434;SDS011;1228;51.022;6.764;2023-02-15T12:29:42;8.67;;;7.77;;
2434;SDS011;1228;51.022;6.764;2023-02-15T12:32:18;9.43;;;7.97;;
2434;SDS011;1228;51.022;6.764;2023-02-15T12:34:48;8.53;;;7.27;;
2434;SDS011;1228;51.022;6.764;2023-02-15T12:37:17;9.10;;;7.23;;
2434;SDS011;1228;51.022;6.764;2023-02-15T12:39:53;10.27;;;7.93;;
2434;SDS011;1228;51.022;6.764;2023-02-15T12:42:21;10.13;;;8.20;;
2434;SDS011;1228;51.022;6.764;2023-02-15T12:44:56;8.13;;;7.30;;
2434;SDS011;1228;51.022;6.764;2023-02-15T12:47:23;9.90;;;8.07;;
2434;SDS011;1228;51.022;6.764;2023-02-15T12:52:48;9.50;;;8.10;;
2434;SDS011;1228;51.022;6.764;2023-02-15T12:55:26;11.00;;;7.90;;
2434;SDS011;1228;51.022;6.764;2023-02-15T13:01:11;9.03;;;8.13;;
2434;SDS011;1228;51.022;6.764;2023-02-15T13:03:55;9.20;;;7.60;;
2434;SDS011;1228;51.022;6.764;2023-02-15T13:06:31;11.60;;;8.00;;
2434;SDS011;1228;51.022;6.764;2023-02-15T13:09:05;8.43;;;7.60;;
2434;SDS011;1228;51.022;6.764;2023-02-15T13:11:39;10.47;;;7.80;;
2434;SDS011;1228;51.022;6.764;2023-02-15T13:14:17;8.43;;;7.47;;
2434;SDS011;1228;51.022;6.764;2023-02-15T13:16:44;8.57;;;7.73;;
2434;SDS011;1228;51.022;6.764;2023-02-15T13:19:18;10.23;;;8.20;;
2434;SDS011;1228;51.022;6.764;2023-02-15T13:21:51;8.17;;;7.00;;
2434;SDS011;1228;51.022;6.764;2023-02-15T13:24:24;10.87;;;8.33;;
2434;SDS011;1228;51.022;6.764;2023-02-15T13:27:05;9.67;;;7.43;;
2434;SDS011;1228;51.022;6.764;2023-02-15T13:29:45;11.00;;;8.07;;
2434;SDS011;1228;51.022;6.764;2023-02-15T13:32:23;9.30;;;8.23;;
2434;SDS011;1228;51.022;6.764;2023-02-15T13:34:56;10.47;;;7.33;;
2434;SDS011;1228;51.022;6.764;2023-02-15T13:39:58;9.70;;;7.60;;
2434;SDS011;1228;51.022;6.764;2023-02-15T13:42:33;12.60;;;8.07;;
2434;SDS011;1228;51.022;6.764;2023-02-15T13:50:37;7.70;;;7.00;;
2434;SDS011;1228;51.022;6.764;2023-02-15T14:06:13;9.80;;;7.80;;
2434;SDS011;1228;51.022;6.764;2023-02-15T14:09:01;10.37;;;7.70;;
2434;SDS011;1228;51.022;6.764;2023-02-15T14:11:53;11.67;;;7.63;;
2434;SDS011;1228;51.022;6.764;2023-02-15T14:14:45;8.73;;;7.17;;
2434;SDS011;1228;51.022;6.764;2023-02-15T14:20:56;8.23;;;7.43;;
2434;SDS011;1228;51.022;6.764;2023-02-15T14:23:26;8.80;;;7.53;;
2434;SDS011;1228;51.022;6.764;2023-02-15T14:26:56;8.93;;;7.20;;
2434;SDS011;1228;51.022;6.764;2023-02-15T14:32:11;8.83;;;7.93;;
2434;SDS011;1228;51.022;6.764;2023-02-15T14:35:02;10.47;;;7.43;;
2434;SDS011;1228;51.022;6.764;2023-02-15T14:43:22;10.23;;;8.47;;
2434;SDS011;1228;51.022;6.764;2023-02-15T14:48:41;8.03;;;7.30;;
2434;SDS011;1228;51.022;6.764;2023-02-15T14:56:45;8.83;;;8.03;;
2434;SDS011;1228;51.022;6.764;2023-02-15T15:05:19;13.70;;;8.87;;
2434;SDS011;1228;51.022;6.764;2023-02-15T15:07:54;13.33;;;7.93;;
2434;SDS011;1228;51.022;6.764;2023-02-15T15:13:34;9.30;;;8.47;;
2434;SDS011;1228;51.022;6.764;2023-02-15T15:15:55;8.40;;;7.50;;
2434;SDS011;1228;51.022;6.764;2023-02-15T15:21:09;11.83;;;8.17;;
2434;SDS011;1228;51.022;6.764;2023-02-15T15:23:44;9.43;;;8.23;;
2434;SDS011;1228;51.022;6.764;2023-02-15T15:26:29;8.47;;;7.30;;
2434;SDS011;1228;51.022;6.764;2023-02-15T15:28:59;8.97;;;8.07;;
2434;SDS011;1228;51.022;6.764;2023-02-15T15:31:27;14.93;;;8.47;;
2434;SDS011;1228;51.022;6.764;2023-02-15T15:42:06;10.40;;;8.23;;
2434;SDS011;1228;51.022;6.764;2023-02-15T15:50:26;11.23;;;9.37;;
2434;SDS011;1228;51.022;6.764;2023-02-15T15:52:57;10.37;;;9.30;;
2434;SDS011;1228;51.022;6.764;2023-02-15T15:55:27;11.20;;;8.23;;
2434;SDS011;1228;51.022;6.764;2023-02-15T15:57:56;10.03;;;8.73;;
2434;SDS011;1228;51.022;6.764;2023-02-15T16:03:47;11.17;;;8.27;;
2434;SDS011;1228;51.022;6.764;2023-02-15T16:06:01;16.27;;;8.03;;
2434;SDS011;1228;51.022;6.764;2023-02-15T16:08:29;9.67;;;8.60;;
2434;SDS011;1228;51.022;6.764;2023-02-15T16:11:07;11.83;;;8.60;;
2434;SDS011;1228;51.022;6.764;2023-02-15T16:13:41;10.23;;;8.30;;
2434;SDS011;1228;51.022;6.764;2023-02-15T16:16:07;10.83;;;9.17;;
2434;SDS011;1228;51.022;6.764;2023-02-15T16:18:33;13.60;;;9.13;;
2434;SDS011;1228;51.022;6.764;2023-02-15T16:21:03;10.47;;;8.07;;
2434;SDS011;1228;51.022;6.764;2023-02-15T16:28:52;14.83;;;9.43;;
2434;SDS011;1228;51.022;6.764;2023-02-15T16:31:19;14.37;;;9.00;;
2434;SDS011;1228;51.022;6.764;2023-02-15T16:33:47;14.93;;;8.63;;
2434;SDS011;1228;51.022;6.764;2023-02-15T16:36:20;10.60;;;9.50;;
2434;SDS011;1228;51.022;6.764;2023-02-15T16:41:17;12.30;;;9.47;;
2434;SDS011;1228;51.022;6.764;2023-02-15T16:43:49;10.37;;;9.33;;
2434;SDS011;1228;51.022;6.764;2023-02-15T16:46:25;10.83;;;9.73;;
2434;SDS011;1228;51.022;6.764;2023-02-15T16:48:53;11.20;;;9.67;;
2434;SDS011;1228;51.022;6.764;2023-02-15T16:51:23;14.00;;;9.90;;
2434;SDS011;1228;51.022;6.764;2023-02-15T16:53:51;12.27;;;10.07;;
2434;SDS011;1228;51.022;6.764;2023-02-15T16:56:22;11.90;;;9.83;;
2434;SDS011;1228;51.022;6.764;2023-02-15T16:58:55;11.30;;;9.10;;
2434;SDS011;1228;51.022;6.764;2023-02-15T17:01:23;11.30;;;10.20;;
2434;SDS011;1228;51.022;6.764;2023-02-15T17:04:10;10.73;;;9.67;;
2434;SDS011;1228;51.022;6.764;2023-02-15T17:07:13;11.33;;;10.20;;
2434;SDS011;1228;51.022;6.764;2023-02-15T17:09:52;11.73;;;10.70;;
2434;SDS011;1228;51.022;6.764;2023-02-15T17:13:19;11.47;;;10.43;;
2434;SDS011;1228;51.022;6.764;2023-02-15T17:15:24;15.83;;;10.30;;
2434;SDS011;1228;51.022;6.764;2023-02-15T17:17:58;14.70;;;11.17;;
2434;SDS011;1228;51.022;6.764;2023-02-15T17:20:30;15.00;;;10.80;;
2434;SDS011;1228;51.022;6.764;2023-02-15T17:22:56;12.93;;;11.10;;
2434;SDS011;1228;51.022;6.764;2023-02-15T17:25:27;11.97;;;10.80;;
2434;SDS011;1228;51.022;6.764;2023-02-15T17:27:59;14.30;;;10.90;;
2434;SDS011;1228;51.022;6.764;2023-02-15T17:30:32;12.77;;;10.63;;
2434;SDS011;1228;51.022;6.764;2023-02-15T17:33:00;17.00;;;9.73;;
2434;SDS011;1228;51.022;6.764;2023-02-15T17:35:28;15.23;;;10.23;;
2434;SDS011;1228;51.022;6.764;2023-02-15T17:38:13;9.87;;;8.93;;
2434;SDS011;1228;51.022;6.764;2023-02-15T17:40:44;10.83;;;9.63;;
2434;SDS011;1228;51.022;6.764;2023-02-15T17:43:10;10.77;;;9.67;;
2434;SDS011;1228;51.022;6.764;2023-02-15T17:45:38;10.17;;;9.37;;
2434;SDS011;1228;51.022;6.764;2023-02-15T17:48:09;11.67;;;10.57;;
2434;SDS011;1228;51.022;6.764;2023-02-15T17:50:45;11.20;;;10.07;;
2434;SDS011;1228;51.022;6.764;2023-02-15T17:53:10;11.60;;;10.10;;
2434;SDS011;1228;51.022;6.764;2023-02-15T17:55:38;14.33;;;11.83;;
2434;SDS011;1228;51.022;6.764;2023-02-15T17:58:05;13.43;;;11.60;;
2434;SDS011;1228;51.022;6.764;2023-02-15T18:00:36;11.97;;;10.93;;
2434;SDS011;1228;51.022;6.764;2023-02-15T18:03:29;13.53;;;10.23;;
2434;SDS011;1228;51.022;6.764;2023-02-15T18:06:25;11.83;;;10.80;;
2434;SDS011;1228;51.022;6.764;2023-02-15T18:09:12;12.93;;;11.63;;
2434;SDS011;1228;51.022;6.764;2023-02-15T18:11:59;14.77;;;11.30;;
2434;SDS011;1228;51.022;6.764;2023-02-15T18:14:25;21.87;;;13.97;;
2434;SDS011;1228;51.022;6.764;2023-02-15T18:16:51;12.83;;;10.53;;
2434;SDS011;1228;51.022;6.764;2023-02-15T18:19:21;15.33;;;11.93;;
2434;SDS011;1228;51.022;6.764;2023-02-15T18:21:49;23.53;;;15.43;;
2434;SDS011;1228;51.022;6.764;2023-02-15T18:24:23;16.97;;;12.43;;
2434;SDS011;1228;51.022;6.764;2023-02-15T18:26:54;11.13;;;10.07;;
2434;SDS011;1228;51.022;6.764;2023-02-15T18:29:19;13.27;;;10.30;;
2434;SDS011;1228;51.022;6.764;2023-02-15T18:31:46;14.63;;;11.40;;
2434;SDS011;1228;51.022;6.764;2023-02-15T18:34:21;14.67;;;11.57;;
2434;SDS011;1228;51.022;6.764;2023-02-15T18:37:04;18.87;;;14.37;;
2434;SDS011;1228;51.022;6.764;2023-02-15T18:42:29;14.40;;;12.90;;
2434;SDS011;1228;51.022;6.764;2023-02-15T18:44:57;16.47;;;12.53;;
2434;SDS011;1228;51.022;6.764;2023-02-15T18:47:24;16.17;;;13.63;;